createdAt,value
2019-04-27T00:00:17.454Z,100.00
2019-04-27T00:03:02.245Z,100.00
2019-04-27T00:05:35.477Z,100.00
2019-04-27T00:08:07.855Z,100.00
2019-04-27T00:10:37.644Z,100.00
2019-04-27T00:13:07.901Z,100.00
2019-04-27T00:15:39.020Z,100.00
2019-04-27T00:18:14.015Z,100.00
2019-04-27T00:20:54.783Z,100.00
2019-04-27T00:23:25.894Z,100.00
2019-04-27T00:25:55.392Z,100.00
2019-04-27T00:28:25.066Z,100.00
2019-04-27T00:30:54.582Z,100.00
2019-04-27T00:33:24.132Z,100.00
2019-04-27T00:35:55.255Z,100.00
2019-04-27T00:38:29.395Z,100.00
2019-04-27T00:41:03.460Z,100.00
2019-04-27T00:43:32.947Z,100.00
2019-04-27T00:46:04.091Z,100.00
2019-04-27T00:48:33.605Z,100.00
2019-04-27T00:51:04.261Z,100.00
2019-04-27T00:53:33.857Z,100.00
2019-04-27T00:56:21.036Z,100.00
2019-04-27T00:59:10.027Z,100.00
2019-04-27T01:01:41.167Z,100.00
2019-04-27T01:04:17.938Z,100.00
2019-04-27T01:06:47.420Z,100.00
2019-04-27T01:09:18.156Z,100.00
2019-04-27T01:11:47.619Z,100.00
2019-04-27T01:14:17.155Z,100.00
2019-04-27T01:16:46.699Z,100.00
2019-04-27T01:19:16.169Z,100.00
2019-04-27T01:21:46.902Z,100.00
2019-04-27T01:24:16.372Z,100.00
2019-04-27T01:26:53.423Z,100.00
2019-04-27T01:29:24.553Z,100.00
2019-04-27T01:31:54.031Z,100.00
2019-04-27T01:34:23.795Z,100.00
2019-04-27T01:36:53.266Z,100.00
2019-04-27T01:39:23.402Z,100.00
2019-04-27T01:41:52.944Z,100.00
2019-04-27T01:44:22.463Z,100.00
2019-04-27T01:46:51.933Z,100.00
2019-04-27T01:49:21.416Z,100.00
2019-04-27T01:51:50.943Z,100.00
2019-04-27T01:54:22.101Z,100.00
2019-04-27T01:56:51.568Z,100.00
2019-04-27T01:59:21.108Z,100.00
2019-04-27T02:01:58.762Z,100.00
2019-04-27T02:04:46.114Z,100.00
2019-04-27T02:07:15.599Z,100.00
2019-04-27T02:09:45.082Z,100.00
2019-04-27T02:12:14.592Z,100.00
2019-04-27T02:14:45.310Z,100.00
2019-04-27T02:17:14.833Z,100.00
2019-04-27T02:19:44.376Z,100.00
2019-04-27T02:22:13.928Z,100.00
2019-04-27T02:24:43.430Z,100.00
2019-04-27T02:27:15.448Z,100.00
2019-04-27T02:30:02.590Z,100.00
2019-04-27T02:32:33.685Z,100.00
2019-04-27T02:35:04.800Z,100.00
2019-04-27T02:37:34.296Z,100.00
2019-04-27T02:40:05.374Z,100.00
2019-04-27T02:42:36.494Z,100.00
2019-04-27T02:45:09.536Z,100.00
2019-04-27T02:47:40.696Z,100.00
2019-04-27T02:50:10.727Z,100.00
2019-04-27T02:52:41.976Z,100.00
2019-04-27T02:55:11.515Z,100.00
2019-04-27T02:57:41.003Z,100.00
2019-04-27T03:00:11.941Z,100.00
2019-04-27T03:02:43.152Z,100.00
2019-04-27T03:05:19.559Z,100.00
2019-04-27T03:07:50.354Z,100.00
2019-04-27T03:10:19.987Z,100.00
2019-04-27T03:12:51.175Z,100.00
2019-04-27T03:15:24.860Z,100.00
2019-04-27T03:18:01.558Z,100.00
2019-04-27T03:20:35.405Z,100.00
2019-04-27T03:23:06.527Z,100.00
2019-04-27T03:25:43.344Z,100.00
2019-04-27T03:28:13.945Z,100.00
2019-04-27T03:30:43.824Z,100.00
2019-04-27T03:33:13.377Z,100.00
2019-04-27T03:35:43.965Z,100.00
2019-04-27T03:38:13.782Z,100.00
2019-04-27T03:40:43.361Z,100.00
2019-04-27T03:43:19.772Z,100.00
2019-04-27T03:45:51.754Z,100.00
2019-04-27T03:48:20.515Z,100.00
2019-04-27T03:50:54.154Z,100.00
2019-04-27T03:53:40.972Z,100.00
2019-04-27T03:56:16.030Z,100.00
2019-04-27T03:58:53.422Z,100.00
2019-04-27T04:01:22.903Z,100.00
2019-04-27T04:03:52.461Z,100.00
2019-04-27T04:06:22.121Z,100.00
2019-04-27T04:08:55.040Z,100.00
2019-04-27T04:11:31.452Z,100.00
2019-04-27T04:14:05.502Z,100.00
2019-04-27T04:16:36.609Z,100.00
2019-04-27T04:19:09.779Z,100.00
2019-04-27T04:21:40.000Z,100.00
2019-04-27T04:24:12.175Z,100.00
2019-04-27T04:26:41.020Z,100.00
2019-04-27T04:29:10.744Z,100.00
2019-04-27T04:31:41.438Z,100.00
2019-04-27T04:34:12.096Z,100.00
2019-04-27T04:36:42.666Z,100.00
2019-04-27T04:39:12.916Z,100.00
2019-04-27T04:41:44.031Z,100.00
2019-04-27T04:44:30.334Z,100.00
2019-04-27T04:47:10.312Z,100.00
2019-04-27T04:49:39.818Z,100.00
2019-04-27T04:52:09.777Z,100.00
2019-04-27T04:54:40.910Z,100.00
2019-04-27T04:57:10.460Z,100.00
2019-04-27T04:59:39.979Z,100.00
2019-04-27T05:02:10.628Z,100.00
2019-04-27T05:04:40.380Z,100.00
2019-04-27T05:07:09.880Z,100.00
2019-04-27T05:09:39.597Z,100.00
2019-04-27T05:12:09.187Z,100.00
2019-04-27T05:14:38.973Z,100.00
2019-04-27T05:17:09.499Z,100.00
2019-04-27T05:19:39.042Z,100.00
2019-04-27T05:22:09.332Z,100.00
2019-04-27T05:24:39.462Z,100.00
2019-04-27T05:27:09.314Z,100.00
2019-04-27T05:29:39.058Z,100.00
2019-04-27T05:32:09.147Z,100.00
2019-04-27T05:34:39.444Z,100.00
2019-04-27T05:37:09.094Z,100.00
2019-04-27T05:39:39.006Z,100.00
2019-04-27T05:42:12.518Z,100.00
2019-04-27T05:44:59.448Z,100.00
2019-04-27T05:47:30.585Z,100.00
2019-04-27T05:50:01.687Z,100.00
2019-04-27T05:52:31.184Z,100.00
2019-04-27T05:55:00.942Z,100.00
2019-04-27T05:57:31.464Z,100.00
2019-04-27T06:00:02.082Z,100.00
2019-04-27T06:02:32.071Z,100.00
2019-04-27T06:05:01.531Z,100.00
2019-04-27T06:07:31.017Z,100.00
2019-04-27T06:10:00.527Z,100.00
2019-04-27T06:12:30.013Z,100.00
2019-04-27T06:15:00.155Z,100.00
2019-04-27T06:17:30.231Z,100.00
2019-04-27T06:19:59.871Z,100.00
2019-04-27T06:22:29.572Z,100.00
2019-04-27T06:25:00.009Z,100.00
2019-04-27T06:27:30.757Z,100.00
2019-04-27T06:30:00.534Z,100.00
2019-04-27T06:32:30.040Z,100.00
2019-04-27T06:34:59.619Z,100.00
2019-04-27T06:37:29.562Z,100.00
2019-04-27T06:39:59.867Z,100.00
2019-04-27T06:42:29.957Z,100.00
2019-04-27T06:45:00.046Z,100.00
2019-04-27T06:47:29.863Z,100.00
2019-04-27T06:49:59.377Z,100.00
2019-04-27T06:52:29.282Z,100.00
2019-04-27T06:55:00.614Z,100.00
2019-04-27T06:57:30.186Z,100.00
2019-04-27T06:59:59.670Z,100.00
2019-04-27T07:02:29.298Z,100.00
2019-04-27T07:04:59.326Z,100.00
2019-04-27T07:07:29.487Z,100.00
2019-04-27T07:09:59.546Z,100.00
2019-04-27T07:12:29.107Z,100.00
2019-04-27T07:14:59.171Z,100.00
2019-04-27T07:17:29.201Z,100.00
2019-04-27T07:19:59.511Z,100.00
2019-04-27T07:22:29.843Z,100.00
2019-04-27T07:24:59.525Z,100.00
2019-04-27T07:27:29.258Z,100.00
2019-04-27T07:29:59.565Z,100.00
2019-04-27T07:32:29.972Z,100.00
2019-04-27T07:34:59.446Z,100.00
2019-04-27T07:37:29.413Z,100.00
2019-04-27T07:39:59.281Z,100.00
2019-04-27T07:42:31.541Z,100.00
2019-04-27T07:45:16.924Z,100.00
2019-04-27T07:47:49.269Z,100.00
2019-04-27T07:50:19.430Z,100.00
2019-04-27T07:52:48.943Z,100.00
2019-04-27T07:55:18.778Z,100.00
2019-04-27T07:57:49.478Z,100.00
2019-04-27T08:00:20.928Z,100.00
2019-04-27T08:02:50.430Z,100.00
2019-04-27T08:05:19.927Z,97.51
2019-04-27T08:07:49.473Z,95.61
2019-04-27T08:10:19.455Z,71.15
2019-04-27T08:12:49.831Z,80.99
2019-04-27T08:15:19.447Z,63.59
2019-04-27T08:17:49.355Z,75.14
2019-04-27T08:20:21.036Z,59.86
2019-04-27T08:22:50.103Z,64.43
2019-04-27T08:25:19.717Z,55.42
2019-04-27T08:27:51.483Z,65.14
2019-04-27T08:30:29.441Z,62.25
2019-04-27T08:33:00.642Z,60.12
2019-04-27T08:35:32.589Z,55.04
2019-04-27T08:38:01.362Z,54.32
2019-04-27T08:40:30.856Z,63.78
2019-04-27T08:43:00.345Z,59.12
2019-04-27T08:45:29.870Z,71.52
2019-04-27T08:47:59.944Z,95.93
2019-04-27T08:50:29.416Z,94.21
2019-04-27T08:53:00.678Z,79.71
2019-04-27T08:55:30.295Z,71.24
2019-04-27T08:57:59.792Z,72.58
2019-04-27T09:00:29.270Z,72.72
2019-04-27T09:02:59.562Z,59.69
2019-04-27T09:05:29.210Z,74.76
2019-04-27T09:08:02.761Z,83.28
2019-04-27T09:10:38.668Z,97.34
2019-04-27T09:13:15.684Z,92.05
2019-04-27T09:15:49.485Z,68.04
2019-04-27T09:18:20.628Z,88.60
2019-04-27T09:20:53.024Z,91.46
2019-04-27T09:23:22.613Z,82.93
2019-04-27T09:25:52.087Z,53.79
2019-04-27T09:28:21.854Z,40.32
2019-04-27T09:30:51.444Z,36.16
2019-04-27T09:33:22.347Z,39.95
2019-04-27T09:35:51.958Z,56.01
2019-04-27T09:38:21.448Z,76.32
2019-04-27T09:40:50.938Z,68.70
2019-04-27T09:43:20.445Z,70.73
2019-04-27T09:45:49.926Z,88.09
2019-04-27T09:48:19.510Z,94.13
2019-04-27T09:50:49.005Z,100.00
2019-04-27T09:53:18.487Z,100.00
2019-04-27T09:55:48.090Z,93.33
2019-04-27T09:58:18.449Z,100.00
2019-04-27T10:00:49.441Z,93.02
2019-04-27T10:03:18.926Z,99.83
2019-04-27T10:05:48.439Z,100.00
2019-04-27T10:08:17.959Z,96.55
2019-04-27T10:10:47.966Z,69.46
2019-04-27T10:13:17.563Z,70.37
2019-04-27T10:15:47.059Z,53.19
2019-04-27T10:18:16.536Z,52.02
2019-04-27T10:20:56.919Z,63.42
2019-04-27T10:23:17.225Z,81.83
2019-04-27T10:25:46.782Z,89.41
2019-04-27T10:28:16.271Z,90.04
2019-04-27T10:30:45.871Z,84.43
2019-04-27T10:33:16.117Z,56.87
2019-04-27T10:35:47.246Z,45.41
2019-04-27T10:38:17.335Z,38.32
2019-04-27T10:40:46.876Z,45.67
2019-04-27T10:43:16.371Z,50.52
2019-04-27T10:45:46.402Z,50.62
2019-04-27T10:48:16.375Z,39.50
2019-04-27T10:50:47.149Z,39.21
2019-04-27T10:53:16.970Z,38.21
2019-04-27T10:55:46.600Z,35.46
2019-04-27T10:58:16.174Z,36.72
2019-04-27T11:00:56.488Z,37.86
2019-04-27T11:03:46.196Z,39.04
2019-04-27T11:06:16.049Z,39.21
2019-04-27T11:08:46.487Z,35.43
2019-04-27T11:11:16.742Z,36.42
2019-04-27T11:13:46.415Z,36.05
2019-04-27T11:16:15.881Z,41.69
2019-04-27T11:18:47.046Z,40.65
2019-04-27T11:21:16.619Z,47.34
2019-04-27T11:23:46.146Z,45.89
2019-04-27T11:26:16.020Z,37.26
2019-04-27T11:28:46.316Z,35.67
2019-04-27T11:31:17.300Z,43.98
2019-04-27T11:33:46.774Z,36.06
2019-04-27T11:36:17.083Z,34.14
2019-04-27T11:38:48.800Z,40.16
2019-04-27T11:41:18.609Z,35.69
2019-04-27T11:43:48.092Z,38.78
2019-04-27T11:46:17.584Z,45.39
2019-04-27T11:48:47.070Z,43.24
2019-04-27T11:51:17.438Z,43.54
2019-04-27T11:53:47.134Z,56.90
2019-04-27T11:56:17.778Z,54.49
2019-04-27T11:58:48.831Z,60.35
2019-04-27T12:01:18.415Z,64.13
2019-04-27T12:03:47.911Z,62.10
2019-04-27T12:06:17.384Z,67.10
2019-04-27T12:08:46.877Z,72.15
2019-04-27T12:11:16.464Z,73.04
2019-04-27T12:13:46.212Z,71.60
2019-04-27T12:16:17.630Z,87.82
2019-04-27T12:18:49.119Z,85.39
2019-04-27T12:21:18.367Z,85.86
2019-04-27T12:23:47.876Z,96.96
2019-04-27T12:26:28.175Z,97.42
2019-04-27T12:28:58.925Z,98.51
2019-04-27T12:31:35.989Z,97.68
2019-04-27T12:34:06.098Z,94.03
2019-04-27T12:36:35.964Z,96.09
2019-04-27T12:39:12.468Z,93.82
2019-04-27T12:41:43.453Z,93.06
2019-04-27T12:44:13.173Z,92.78
2019-04-27T12:46:43.127Z,82.73
2019-04-27T12:49:12.903Z,83.02
2019-04-27T12:51:42.501Z,80.00
2019-04-27T12:54:13.640Z,79.59
2019-04-27T12:56:53.545Z,76.51
2019-04-27T12:59:26.177Z,82.04
2019-04-27T13:01:56.198Z,83.02
2019-04-27T13:04:25.687Z,84.36
2019-04-27T13:06:55.906Z,80.81
2019-04-27T13:09:25.694Z,78.45
2019-04-27T13:11:56.000Z,75.22
2019-04-27T13:14:26.325Z,82.98
2019-04-27T13:16:56.151Z,85.29
2019-04-27T13:19:25.924Z,78.23
2019-04-27T13:21:55.953Z,82.70
2019-04-27T13:24:26.069Z,73.87
2019-04-27T13:26:56.670Z,79.71
2019-04-27T13:29:26.206Z,81.69
2019-04-27T13:31:57.600Z,83.46
2019-04-27T13:34:26.895Z,76.35
2019-04-27T13:36:57.601Z,87.11
2019-04-27T13:39:27.346Z,75.81
2019-04-27T13:41:56.988Z,73.63
2019-04-27T13:44:26.479Z,80.92
2019-04-27T13:47:13.545Z,81.46
2019-04-27T13:49:47.351Z,81.86
2019-04-27T13:52:18.457Z,82.75
2019-04-27T13:54:47.948Z,77.59
2019-04-27T13:57:18.379Z,60.79
2019-04-27T13:59:48.036Z,59.63
2019-04-27T14:02:19.149Z,62.73
2019-04-27T14:04:48.785Z,56.94
2019-04-27T14:07:18.281Z,64.75
2019-04-27T14:09:48.935Z,62.62
2019-04-27T14:12:21.264Z,73.70
2019-04-27T14:14:51.058Z,76.00
2019-04-27T14:17:20.666Z,80.83
2019-04-27T14:19:50.101Z,75.22
2019-04-27T14:22:19.637Z,74.22
2019-04-27T14:24:49.191Z,75.85
2019-04-27T14:27:20.326Z,76.61
2019-04-27T14:29:49.848Z,74.75
2019-04-27T14:32:20.030Z,77.06
2019-04-27T14:34:50.358Z,79.26
2019-04-27T14:37:19.926Z,79.75
2019-04-27T14:39:49.513Z,81.67
2019-04-27T14:42:19.265Z,86.96
2019-04-27T14:44:49.098Z,82.08
2019-04-27T14:47:18.935Z,83.88
2019-04-27T14:49:49.108Z,83.09
2019-04-27T14:52:18.963Z,81.87
2019-04-27T14:54:50.808Z,81.03
2019-04-27T14:57:20.396Z,84.60
2019-04-27T14:59:50.417Z,79.98
2019-04-27T15:02:19.949Z,79.91
2019-04-27T15:04:49.473Z,75.57
2019-04-27T15:07:19.001Z,79.07
2019-04-27T15:09:49.626Z,68.11
2019-04-27T15:12:24.420Z,70.96
2019-04-27T15:14:53.346Z,71.82
2019-04-27T15:17:25.574Z,69.20
2019-04-27T15:19:57.903Z,73.22
2019-04-27T15:22:30.074Z,70.21
2019-04-27T15:25:10.866Z,70.18
2019-04-27T15:27:37.461Z,69.99
2019-04-27T15:30:11.110Z,72.56
2019-04-27T15:32:49.438Z,71.75
2019-04-27T15:35:22.983Z,76.86
2019-04-27T15:37:56.577Z,74.20
2019-04-27T15:40:50.596Z,73.53
2019-04-27T15:43:18.383Z,71.12
2019-04-27T15:45:48.686Z,75.83
2019-04-27T15:48:20.216Z,79.07
2019-04-27T15:50:49.524Z,83.01
2019-04-27T15:53:19.027Z,84.53
2019-04-27T15:55:49.751Z,85.89
2019-04-27T15:58:25.125Z,87.05
2019-04-27T16:00:56.285Z,81.22
2019-04-27T16:03:22.659Z,77.58
2019-04-27T16:05:53.473Z,78.77
2019-04-27T16:08:23.914Z,78.52
2019-04-27T16:10:53.459Z,84.60
2019-04-27T16:13:26.401Z,80.39
2019-04-27T16:15:55.234Z,84.51
2019-04-27T16:18:28.514Z,80.96
2019-04-27T16:20:55.898Z,86.78
2019-04-27T16:23:25.400Z,91.60
2019-04-27T16:25:54.890Z,96.22
2019-04-27T16:28:24.376Z,94.67
2019-04-27T16:30:54.150Z,94.86
2019-04-27T16:33:23.693Z,92.57
2019-04-27T16:36:00.309Z,94.06
2019-04-27T16:38:44.063Z,94.84
2019-04-27T16:41:13.672Z,85.27
2019-04-27T16:43:45.501Z,91.07
2019-04-27T16:46:14.746Z,92.48
2019-04-27T16:48:44.222Z,88.79
2019-04-27T16:51:13.759Z,93.11
2019-04-27T16:53:43.298Z,96.48
2019-04-27T16:56:14.819Z,90.37
2019-04-27T16:58:49.074Z,92.25
2019-04-27T17:01:24.218Z,90.73
2019-04-27T17:03:54.226Z,100.00
2019-04-27T17:06:23.776Z,99.12
2019-04-27T17:08:57.394Z,100.00
2019-04-27T17:11:24.488Z,100.00
2019-04-27T17:13:59.058Z,98.20
2019-04-27T17:16:45.067Z,98.26
2019-04-27T17:19:16.171Z,98.84
2019-04-27T17:21:45.676Z,100.00
2019-04-27T17:24:18.025Z,100.00
2019-04-27T17:26:47.852Z,100.00
2019-04-27T17:29:20.472Z,100.00
2019-04-27T17:31:55.163Z,100.00
2019-04-27T17:34:25.336Z,100.00
2019-04-27T17:36:56.391Z,100.00
2019-04-27T17:39:25.419Z,100.00
2019-04-27T17:41:54.929Z,100.00
2019-04-27T17:44:24.412Z,100.00
2019-04-27T17:46:53.909Z,100.00
2019-04-27T17:49:23.426Z,100.00
2019-04-27T17:51:52.968Z,100.00
2019-04-27T17:54:22.446Z,100.00
2019-04-27T17:56:52.539Z,100.00
2019-04-27T17:59:23.407Z,100.00
2019-04-27T18:01:53.839Z,100.00
2019-04-27T18:04:24.105Z,100.00
2019-04-27T18:06:55.649Z,100.00
2019-04-27T18:09:24.800Z,100.00
2019-04-27T18:11:54.665Z,100.00
2019-04-27T18:14:24.197Z,100.00
2019-04-27T18:16:53.703Z,100.00
2019-04-27T18:19:33.685Z,100.00
2019-04-27T18:22:04.849Z,100.00
2019-04-27T18:24:37.887Z,100.00
2019-04-27T18:27:09.110Z,100.00
2019-04-27T18:29:38.746Z,100.00
2019-04-27T18:32:08.883Z,100.00
2019-04-27T18:34:38.936Z,100.00
2019-04-27T18:37:08.760Z,100.00
2019-04-27T18:39:38.789Z,100.00
2019-04-27T18:42:09.442Z,100.00
2019-04-27T18:44:38.930Z,100.00
2019-04-27T18:47:08.576Z,100.00
2019-04-27T18:49:39.672Z,100.00
2019-04-27T18:52:22.623Z,100.00
2019-04-27T18:54:52.453Z,100.00
2019-04-27T18:57:21.966Z,100.00
2019-04-27T18:59:51.476Z,100.00
2019-04-27T19:02:20.945Z,100.00
2019-04-27T19:04:50.477Z,100.00
2019-04-27T19:07:20.599Z,100.00
2019-04-27T19:09:50.275Z,100.00
2019-04-27T19:12:20.491Z,100.00
2019-04-27T19:14:50.111Z,100.00
2019-04-27T19:17:20.034Z,100.00
2019-04-27T19:19:49.755Z,100.00
2019-04-27T19:22:19.241Z,100.00
2019-04-27T19:24:48.733Z,100.00
2019-04-27T19:27:35.924Z,100.00
2019-04-27T19:30:11.575Z,100.00
2019-04-27T19:32:41.052Z,100.00
2019-04-27T19:35:10.531Z,100.00
2019-04-27T19:37:40.058Z,100.00
2019-04-27T19:40:09.751Z,100.00
2019-04-27T19:42:39.247Z,100.00
2019-04-27T19:45:08.870Z,100.00
2019-04-27T19:47:38.443Z,100.00
2019-04-27T19:50:10.314Z,100.00
2019-04-27T19:52:39.871Z,100.00
2019-04-27T19:55:09.429Z,100.00
2019-04-27T19:57:42.033Z,100.00
2019-04-27T20:00:15.257Z,100.00
2019-04-27T20:02:44.764Z,100.00
2019-04-27T20:05:16.426Z,100.00
2019-04-27T20:07:46.034Z,100.00
2019-04-27T20:10:15.553Z,100.00
2019-04-27T20:12:45.028Z,100.00
2019-04-27T20:15:14.587Z,100.00
2019-04-27T20:17:44.060Z,100.00
2019-04-27T20:20:13.774Z,100.00
2019-04-27T20:22:43.263Z,100.00
2019-04-27T20:25:12.873Z,100.00
2019-04-27T20:27:46.893Z,100.00
2019-04-27T20:30:14.545Z,100.00
2019-04-27T20:32:44.010Z,100.00
2019-04-27T20:35:13.475Z,100.00
2019-04-27T20:37:42.971Z,100.00
2019-04-27T20:40:13.695Z,100.00
2019-04-27T20:42:43.204Z,100.00
2019-04-27T20:45:12.691Z,100.00
2019-04-27T20:47:42.236Z,100.00
2019-04-27T20:50:12.095Z,100.00
2019-04-27T20:52:41.329Z,100.00
2019-04-27T20:55:13.011Z,100.00
2019-04-27T20:57:42.542Z,100.00
2019-04-27T21:00:13.990Z,100.00
2019-04-27T21:03:02.653Z,100.00
2019-04-27T21:05:36.361Z,100.00
2019-04-27T21:08:11.688Z,100.00
2019-04-27T21:10:41.446Z,100.00
2019-04-27T21:13:11.328Z,100.00
2019-04-27T21:15:41.912Z,100.00
2019-04-27T21:18:11.651Z,100.00
2019-04-27T21:20:41.319Z,100.00
2019-04-27T21:23:12.086Z,100.00
2019-04-27T21:25:42.216Z,100.00
2019-04-27T21:28:17.972Z,100.00
2019-04-27T21:30:42.952Z,100.00
2019-04-27T21:33:12.471Z,100.00
2019-04-27T21:35:42.651Z,100.00
2019-04-27T21:38:12.162Z,100.00
2019-04-27T21:40:41.617Z,100.00
2019-04-27T21:43:11.390Z,100.00
2019-04-27T21:45:41.990Z,100.00
2019-04-27T21:48:11.529Z,100.00
2019-04-27T21:50:41.421Z,100.00
2019-04-27T21:53:12.543Z,100.00
2019-04-27T21:55:42.254Z,100.00
2019-04-27T21:58:11.822Z,100.00
2019-04-27T22:00:42.839Z,100.00
2019-04-27T22:03:21.452Z,100.00
2019-04-27T22:05:51.585Z,100.00
2019-04-27T22:08:21.515Z,100.00
2019-04-27T22:10:50.921Z,100.00
2019-04-27T22:13:22.192Z,100.00
2019-04-27T22:15:51.758Z,100.00
2019-04-27T22:18:21.345Z,100.00
2019-04-27T22:20:51.175Z,100.00
2019-04-27T22:23:23.210Z,100.00
2019-04-27T22:25:54.612Z,100.00
2019-04-27T22:28:23.924Z,100.00
2019-04-27T22:30:53.702Z,100.00
2019-04-27T22:33:23.485Z,100.00
2019-04-27T22:35:52.953Z,100.00
2019-04-27T22:38:22.449Z,100.00
2019-04-27T22:41:13.078Z,100.00
2019-04-27T22:44:01.344Z,100.00
2019-04-27T22:46:32.539Z,100.00
2019-04-27T22:49:02.015Z,100.00
2019-04-27T22:51:32.446Z,100.00
2019-04-27T22:54:01.934Z,100.00
2019-04-27T22:56:32.114Z,100.00
2019-04-27T22:59:11.003Z,100.00
2019-04-27T23:01:42.662Z,100.00
2019-04-27T23:04:16.243Z,100.00
2019-04-27T23:06:45.726Z,100.00
2019-04-27T23:09:15.200Z,100.00
2019-04-27T23:11:44.668Z,100.00
2019-04-27T23:14:14.188Z,100.00
2019-04-27T23:16:48.103Z,100.00
2019-04-27T23:19:17.588Z,100.00
2019-04-27T23:21:47.103Z,100.00
2019-04-27T23:24:16.602Z,100.00
2019-04-27T23:26:46.074Z,100.00
2019-04-27T23:29:16.069Z,100.00
2019-04-27T23:31:58.977Z,100.00
2019-04-27T23:34:28.463Z,100.00
2019-04-27T23:36:57.962Z,100.00
2019-04-27T23:39:27.446Z,100.00
2019-04-27T23:41:56.935Z,100.00
2019-04-27T23:44:26.401Z,100.00
2019-04-27T23:46:55.996Z,100.00
2019-04-27T23:49:25.493Z,100.00
2019-04-27T23:51:59.296Z,100.00
2019-04-27T23:54:28.787Z,100.00
2019-04-27T23:56:58.259Z,100.00
2019-04-27T23:59:27.739Z,100.00
